createdAt,value
2019-02-22T21:12:42.286Z,12.37
2019-02-22T21:15:12.712Z,12.47
2019-02-22T21:17:41.720Z,11.90
2019-02-22T21:20:18.528Z,12.10
2019-02-22T21:22:47.702Z,13.23
2019-02-22T21:25:16.561Z,12.67
2019-02-22T21:27:45.974Z,12.73
2019-02-22T21:30:19.180Z,13.28
2019-02-22T21:32:48.347Z,13.47
2019-02-22T21:35:17.549Z,12.60
2019-02-22T21:37:53.562Z,13.65
2019-02-22T21:40:24.514Z,13.28
2019-02-22T21:42:55.065Z,14.58
2019-02-22T21:45:24.313Z,14.30
2019-02-22T21:50:47.453Z,14.77
2019-02-22T21:53:16.642Z,12.73
2019-02-22T21:55:46.102Z,12.27
2019-02-22T21:58:15.307Z,13.40
2019-02-22T22:00:44.520Z,12.50
2019-02-22T22:03:13.710Z,11.50
2019-02-22T22:05:42.766Z,11.90
2019-02-22T22:08:15.075Z,11.50
2019-02-22T22:10:44.443Z,11.30
2019-02-22T22:13:18.271Z,11.43
2019-02-22T22:15:49.663Z,10.40
2019-02-22T22:18:18.673Z,10.77
2019-02-22T22:20:51.047Z,10.30
2019-02-22T22:23:20.202Z,10.15
2019-02-22T22:25:49.449Z,10.30
2019-02-22T22:28:18.486Z,10.45
2019-02-22T22:30:47.776Z,10.40
2019-02-22T22:33:16.975Z,9.85
2019-02-22T22:35:46.348Z,10.13
2019-02-22T22:38:15.411Z,10.25
2019-02-22T22:40:44.373Z,10.47
2019-02-22T22:43:12.973Z,10.63
2019-02-22T22:45:41.589Z,10.17
2019-02-22T22:48:10.096Z,10.80
2019-02-22T22:50:38.587Z,11.35
2019-02-22T22:53:07.129Z,10.47
2019-02-22T22:55:35.697Z,9.90
2019-02-22T22:58:04.172Z,11.15
2019-02-22T23:00:40.039Z,9.90
2019-02-22T23:03:09.317Z,10.60
2019-02-22T23:05:37.886Z,10.40
2019-02-22T23:08:06.441Z,10.38
2019-02-22T23:10:34.935Z,10.90
2019-02-22T23:13:03.482Z,11.83
2019-02-22T23:15:32.061Z,11.22
2019-02-22T23:18:00.542Z,10.80
2019-02-22T23:20:29.192Z,11.17
2019-02-22T23:22:57.671Z,10.83
2019-02-22T23:25:26.268Z,11.15
2019-02-22T23:27:54.848Z,11.97
2019-02-22T23:30:23.432Z,11.50
2019-02-22T23:32:51.979Z,11.60
2019-02-22T23:35:21.266Z,10.58
2019-02-22T23:37:49.814Z,11.90
2019-02-22T23:40:18.379Z,11.07
2019-02-22T23:42:46.930Z,10.05
2019-02-22T23:45:15.493Z,11.77
2019-02-22T23:47:43.970Z,11.05
2019-02-22T23:50:12.456Z,11.17
2019-02-22T23:52:40.924Z,11.63
2019-02-22T23:55:09.421Z,10.50
2019-02-22T23:57:37.977Z,11.60
